Time;durP1;ratioP1;P1;durP2;ratioP2;P2;SDS_P1;SDS_P2;PMS_P1;PMS_P2;Temp;Humidity;BMP_temperature;BMP_pressure;BME280_temperature;BME280_humidity;BME280_pressure;Samples;Min_cycle;Max_cycle;Signal;HPM_P1;HPM_P2
2021/03/02 00:01:04;;;;;;;15.43;7.90;;;5.20;81.40;;;;;;5046224;28;20515;-70
2021/03/02 00:03:32;;;;;;;18.17;7.93;;;5.20;81.50;;;;;;5043242;28;20959;-71
2021/03/02 00:05:59;;;;;;;16.47;8.77;;;5.10;81.50;;;;;;5030547;28;20428;-72
2021/03/02 00:08:27;;;;;;;19.00;10.40;;;5.10;81.70;;;;;;5031145;28;20420;-70
2021/03/02 00:10:54;;;;;;;22.83;9.83;;;5.10;81.90;;;;;;5043284;28;20530;-71
2021/03/02 00:13:20;;;;;;;18.60;8.33;;;5.00;82.10;;;;;;5030802;28;20440;-71
2021/03/02 00:15:47;;;;;;;13.70;8.10;;;5.00;82.20;;;;;;5029899;28;20440;-71
2021/03/02 00:18:17;;;;;;;17.63;7.50;;;5.00;82.50;;;;;;5042035;28;20185;-71
2021/03/02 00:20:47;;;;;;;13.47;6.90;;;5.00;82.70;;;;;;5038971;28;20427;-69
2021/03/02 00:23:26;;;;;;;17.97;8.30;;;5.00;83.00;;;;;;5041745;28;20586;-70
2021/03/02 00:25:57;;;;;;;13.90;6.90;;;5.00;83.10;;;;;;5036462;28;20431;-72
2021/03/02 00:28:25;;;;;;;16.93;7.57;;;4.90;83.10;;;;;;5038041;28;20452;-70
2021/03/02 00:30:52;;;;;;;18.93;6.60;;;4.90;83.10;;;;;;5035262;28;20519;-70
2021/03/02 00:33:20;;;;;;;14.97;7.23;;;4.90;83.60;;;;;;5034003;28;20473;-70
2021/03/02 00:35:46;;;;;;;15.80;8.13;;;4.90;83.60;;;;;;5044288;28;20484;-71
2021/03/02 00:38:12;;;;;;;16.37;8.27;;;4.90;83.40;;;;;;5043924;28;20585;-71
2021/03/02 00:40:38;;;;;;;15.70;7.77;;;4.90;83.00;;;;;;5018613;28;20427;-71
2021/03/02 00:43:04;;;;;;;16.87;7.73;;;4.80;82.70;;;;;;5044515;28;20439;-70
2021/03/02 00:45:30;;;;;;;18.03;7.40;;;4.70;83.00;;;;;;5030400;28;20424;-71
2021/03/02 00:47:56;;;;;;;16.10;8.30;;;4.70;83.30;;;;;;5038565;28;20438;-71
2021/03/02 00:50:23;;;;;;;17.23;8.37;;;4.70;83.60;;;;;;5049812;28;20548;-71
2021/03/02 00:52:49;;;;;;;13.37;7.53;;;4.60;83.10;;;;;;5051471;28;20466;-70
2021/03/02 00:55:16;;;;;;;16.40;7.07;;;4.60;83.70;;;;;;5050789;28;20521;-71
2021/03/02 00:57:42;;;;;;;14.97;6.77;;;4.60;84.30;;;;;;5037757;28;20506;-70
2021/03/02 01:00:10;;;;;;;15.57;8.37;;;4.60;84.40;;;;;;5049853;28;20930;-71
2021/03/02 01:02:36;;;;;;;12.47;7.13;;;4.50;84.70;;;;;;5036436;28;20562;-72
2021/03/02 01:05:04;;;;;;;15.00;8.20;;;4.50;85.00;;;;;;5042314;28;20430;-71
2021/03/02 01:07:30;;;;;;;18.23;7.70;;;4.50;84.90;;;;;;5031449;28;20939;-72
2021/03/02 01:09:56;;;;;;;16.10;8.53;;;4.50;84.60;;;;;;5042651;28;20443;-71
2021/03/02 01:12:26;;;;;;;16.20;8.67;;;4.50;84.10;;;;;;5040494;28;20959;-70
2021/03/02 01:14:53;;;;;;;14.93;7.50;;;4.50;84.30;;;;;;5029398;28;20538;-69
2021/03/02 01:17:19;;;;;;;15.33;7.70;;;4.40;84.70;;;;;;5030245;28;20905;-72
2021/03/02 01:19:45;;;;;;;13.97;7.27;;;4.40;85.00;;;;;;5034020;28;20482;-71
2021/03/02 01:22:11;;;;;;;14.93;8.00;;;4.30;85.00;;;;;;5046959;28;20473;-72
2021/03/02 01:24:37;;;;;;;11.60;6.80;;;4.30;85.30;;;;;;5042739;28;20208;-71
2021/03/02 01:27:03;;;;;;;18.53;8.23;;;4.20;85.50;;;;;;5041783;28;20553;-71
2021/03/02 01:29:29;;;;;;;13.80;7.17;;;4.20;85.60;;;;;;5043072;28;20224;-70
2021/03/02 01:31:55;;;;;;;16.17;7.67;;;4.20;85.70;;;;;;5045466;28;20439;-70
2021/03/02 01:34:21;;;;;;;17.07;7.90;;;4.20;85.50;;;;;;5041225;28;20492;-70
2021/03/02 01:36:46;;;;;;;15.33;8.80;;;4.20;85.20;;;;;;5039143;28;20711;-70
2021/03/02 01:39:12;;;;;;;16.07;7.83;;;4.20;85.60;;;;;;5024855;28;20425;-70
2021/03/02 01:41:39;;;;;;;14.67;7.20;;;4.20;85.50;;;;;;5030358;28;20580;-70
2021/03/02 01:44:05;;;;;;;16.53;7.40;;;4.10;85.20;;;;;;5046650;28;20212;-72
2021/03/02 01:46:30;;;;;;;15.47;6.80;;;4.10;85.60;;;;;;5032136;28;20419;-69
2021/03/02 01:48:56;;;;;;;13.80;7.07;;;4.10;86.00;;;;;;5029787;28;20972;-71
2021/03/02 01:51:22;;;;;;;15.70;7.50;;;4.10;86.50;;;;;;5043468;28;20215;-71
2021/03/02 01:53:48;;;;;;;18.57;8.20;;;4.10;86.20;;;;;;5038924;28;20953;-69
2021/03/02 01:56:14;;;;;;;14.40;7.40;;;4.00;85.70;;;;;;5035900;28;20209;-69
2021/03/02 01:58:40;;;;;;;15.40;7.60;;;4.00;86.30;;;;;;5041698;28;20246;-69
2021/03/02 02:01:08;;;;;;;14.13;6.93;;;3.90;86.50;;;;;;5042931;28;20463;-71
2021/03/02 02:03:49;;;;;;;13.63;7.50;;;3.90;87.00;;;;;;5030686;28;20189;-69
2021/03/02 02:06:34;;;;;;;14.10;7.27;;;3.90;87.10;;;;;;5042329;28;20447;-70
2021/03/02 02:09:19;;;;;;;14.97;7.07;;;3.90;87.10;;;;;;5043026;28;20428;-71
2021/03/02 02:12:00;;;;;;;13.53;6.17;;;3.90;87.60;;;;;;5040159;28;20499;-72
2021/03/02 02:15:01;;;;;;;13.57;7.87;;;3.90;87.80;;;;;;5034789;28;20459;-70
2021/03/02 02:17:35;;;;;;;13.50;6.70;;;3.90;88.30;;;;;;5029501;28;21014;-70
2021/03/02 02:20:08;;;;;;;13.40;7.37;;;3.90;88.40;;;;;;5041462;28;20519;-72
2021/03/02 02:22:49;;;;;;;17.30;7.43;;;3.80;88.60;;;;;;5029496;28;20968;-70
2021/03/02 02:25:22;;;;;;;16.60;7.57;;;3.80;88.60;;;;;;5028380;28;20226;-72
2021/03/02 02:27:51;;;;;;;14.40;7.15;;;3.80;88.30;;;;;;5029499;28;20507;-69
2021/03/02 02:30:18;;;;;;;13.27;7.40;;;3.80;88.40;;;;;;5042791;28;20192;-69
2021/03/02 02:32:47;;;;;;;16.30;7.37;;;3.80;88.30;;;;;;5029533;28;20478;-70
2021/03/02 02:35:15;;;;;;;12.43;6.73;;;3.80;87.70;;;;;;5028651;28;20443;-70
2021/03/02 02:37:44;;;;;;;16.23;7.23;;;3.70;87.80;;;;;;5028052;28;20993;-69
2021/03/02 02:40:12;;;;;;;15.63;7.90;;;3.70;88.40;;;;;;5016843;28;20479;-70
2021/03/02 02:42:40;;;;;;;12.17;6.20;;;3.80;88.90;;;;;;5039597;28;20447;-69
2021/03/02 02:45:07;;;;;;;21.63;8.43;;;3.70;89.00;;;;;;5032513;28;20423;-72
2021/03/02 02:47:33;;;;;;;15.47;7.40;;;3.70;89.20;;;;;;5024386;28;20845;-72
2021/03/02 02:49:59;;;;;;;11.70;7.43;;;3.70;89.20;;;;;;5044626;28;20589;-70
2021/03/02 02:52:26;;;;;;;12.20;7.00;;;3.70;89.00;;;;;;5030254;28;20490;-71
2021/03/02 02:54:55;;;;;;;13.63;8.07;;;3.70;89.00;;;;;;5034411;28;20448;-72
2021/03/02 02:57:21;;;;;;;17.20;8.00;;;3.70;89.20;;;;;;5051728;28;20467;-71
2021/03/02 02:59:50;;;;;;;14.20;7.23;;;3.70;89.30;;;;;;5052161;28;20433;-72
2021/03/02 03:02:22;;;;;;;17.50;7.47;;;3.70;89.50;;;;;;5050124;28;20455;-72
2021/03/02 03:05:19;;;;;;;13.60;6.80;;;3.70;89.50;;;;;;5048668;28;20426;-70
2021/03/02 03:08:08;;;;;;;13.87;7.40;;;3.70;89.60;;;;;;5047586;28;20443;-70
2021/03/02 03:10:36;;;;;;;18.17;8.07;;;3.60;89.60;;;;;;5048997;28;20515;-70
2021/03/02 03:13:05;;;;;;;15.03;7.67;;;3.50;89.60;;;;;;5041896;28;20452;-70
2021/03/02 03:15:33;;;;;;;14.27;7.20;;;3.50;89.60;;;;;;5029222;28;20566;-70
2021/03/02 03:18:00;;;;;;;17.57;8.00;;;3.50;89.20;;;;;;5052000;28;20473;-71
2021/03/02 03:20:27;;;;;;;16.30;8.33;;;3.50;89.00;;;;;;5052824;28;20917;-71
2021/03/02 03:22:56;;;;;;;19.07;7.53;;;3.50;89.00;;;;;;5051549;28;20489;-69
2021/03/02 03:25:22;;;;;;;18.25;7.60;;;3.50;89.00;;;;;;5050249;28;20900;-72
2021/03/02 03:27:52;;;;;;;17.73;8.33;;;3.40;89.30;;;;;;5052514;28;20517;-72
2021/03/02 03:30:20;;;;;;;14.23;7.22;;;3.40;89.30;;;;;;5052299;28;20980;-72
2021/03/02 03:32:57;;;;;;;17.53;8.10;;;3.40;89.30;;;;;;5044903;28;20299;-69
2021/03/02 03:35:24;;;;;;;21.50;8.07;;;3.40;89.50;;;;;;5032950;28;20990;-70
2021/03/02 03:37:51;;;;;;;18.57;8.53;;;3.30;89.70;;;;;;5045668;28;20477;-69
2021/03/02 03:40:17;;;;;;;19.05;8.90;;;3.30;90.10;;;;;;5022407;28;20424;-70
2021/03/02 03:42:43;;;;;;;17.00;8.53;;;3.20;90.20;;;;;;5034040;28;20206;-70
2021/03/02 03:45:09;;;;;;;15.97;8.10;;;3.20;90.30;;;;;;5046561;28;20833;-71
2021/03/02 03:47:35;;;;;;;15.07;8.18;;;3.20;90.20;;;;;;5036854;28;20496;-70
2021/03/02 03:50:02;;;;;;;20.63;8.10;;;3.20;90.20;;;;;;5048336;28;20688;-70
2021/03/02 03:52:28;;;;;;;24.10;8.67;;;3.20;90.40;;;;;;5044063;28;20442;-71
2021/03/02 03:54:56;;;;;;;13.53;7.50;;;3.20;90.40;;;;;;5038504;28;20423;-68
2021/03/02 03:57:24;;;;;;;18.03;8.27;;;3.20;90.50;;;;;;5041632;28;20464;-70
2021/03/02 03:59:51;;;;;;;16.50;8.17;;;3.20;90.50;;;;;;5048442;28;20452;-69
2021/03/02 04:02:18;;;;;;;14.55;7.32;;;3.20;90.60;;;;;;5048176;28;20439;-71
2021/03/02 04:04:46;;;;;;;16.73;7.77;;;3.10;90.80;;;;;;5049198;28;20197;-72
2021/03/02 04:07:13;;;;;;;20.00;7.90;;;3.10;91.20;;;;;;5046509;28;20876;-69
2021/03/02 04:09:39;;;;;;;19.92;8.68;;;3.10;91.20;;;;;;5041650;28;20199;-70
2021/03/02 04:12:08;;;;;;;16.83;8.40;;;3.00;91.20;;;;;;5042553;28;20205;-72
2021/03/02 04:14:34;;;;;;;17.65;8.57;;;3.00;91.50;;;;;;5052534;28;20196;-70
2021/03/02 04:17:01;;;;;;;19.10;8.10;;;3.00;91.60;;;;;;5035941;28;20204;-69
2021/03/02 04:19:27;;;;;;;18.97;9.53;;;3.00;91.60;;;;;;5043086;28;20181;-71
2021/03/02 04:21:53;;;;;;;16.73;8.70;;;3.00;91.80;;;;;;5031404;28;20918;-71
2021/03/02 04:24:18;;;;;;;16.03;8.60;;;3.00;91.90;;;;;;5030499;28;20196;-69
2021/03/02 04:26:44;;;;;;;17.37;8.60;;;3.00;92.00;;;;;;5031638;28;20189;-69
2021/03/02 04:29:10;;;;;;;16.87;7.80;;;3.00;91.90;;;;;;5036679;28;20551;-71
2021/03/02 04:31:35;;;;;;;17.90;9.07;;;3.00;91.70;;;;;;5039121;28;20283;-73
2021/03/02 04:34:01;;;;;;;20.53;8.70;;;3.00;91.80;;;;;;5044350;28;20181;-71
2021/03/02 04:36:27;;;;;;;17.90;9.20;;;3.10;91.80;;;;;;5043182;28;20212;-70
2021/03/02 04:38:53;;;;;;;24.03;10.83;;;3.00;91.60;;;;;;5025812;28;20178;-72
2021/03/02 04:41:18;;;;;;;18.10;9.07;;;3.00;91.60;;;;;;5022196;28;20558;-71
2021/03/02 04:43:44;;;;;;;18.50;8.90;;;3.00;91.60;;;;;;5042895;28;20185;-70
2021/03/02 04:46:10;;;;;;;21.27;9.40;;;3.00;91.60;;;;;;5026423;28;20567;-69
2021/03/02 04:48:35;;;;;;;13.07;8.60;;;2.90;91.70;;;;;;5033317;28;20262;-69
2021/03/02 04:51:01;;;;;;;16.50;9.63;;;2.90;91.80;;;;;;5051033;28;20678;-70
2021/03/02 04:53:28;;;;;;;17.80;8.60;;;2.90;91.90;;;;;;5037502;28;20189;-70
2021/03/02 04:55:54;;;;;;;20.90;9.00;;;2.90;92.00;;;;;;5037107;28;20416;-70
2021/03/02 04:58:20;;;;;;;17.53;8.80;;;2.90;91.90;;;;;;5049168;28;20439;-69
2021/03/02 05:00:46;;;;;;;16.63;8.73;;;2.90;91.90;;;;;;5038557;28;20474;-69
2021/03/02 05:03:11;;;;;;;18.87;8.90;;;2.90;91.70;;;;;;5036371;28;20271;-70
2021/03/02 05:05:37;;;;;;;20.80;9.70;;;2.80;91.70;;;;;;5052138;28;20184;-69
2021/03/02 05:08:03;;;;;;;19.93;9.70;;;2.70;91.80;;;;;;5033097;28;20217;-69
2021/03/02 05:10:29;;;;;;;19.92;10.65;;;2.70;91.90;;;;;;5031150;28;20189;-71
2021/03/02 05:12:55;;;;;;;20.45;10.02;;;2.70;92.00;;;;;;5029748;28;20248;-71
2021/03/02 05:15:21;;;;;;;21.07;9.27;;;2.70;92.10;;;;;;5034292;28;20674;-72
2021/03/02 05:17:47;;;;;;;21.50;9.97;;;2.70;92.30;;;;;;5038400;28;20743;-71
2021/03/02 05:20:13;;;;;;;18.40;9.57;;;2.70;92.10;;;;;;5039379;28;20451;-70
2021/03/02 05:22:39;;;;;;;17.85;9.77;;;2.70;92.20;;;;;;5033564;28;20683;-69
2021/03/02 05:25:05;;;;;;;17.60;9.50;;;2.70;92.10;;;;;;5045086;28;20204;-70
2021/03/02 05:27:31;;;;;;;17.88;8.70;;;2.70;92.20;;;;;;5037915;28;20426;-72
2021/03/02 05:29:57;;;;;;;18.73;10.63;;;2.70;92.10;;;;;;5036594;28;20304;-70
2021/03/02 05:32:22;;;;;;;18.90;9.70;;;2.70;92.20;;;;;;5041939;28;20833;-70
2021/03/02 05:34:48;;;;;;;22.23;9.63;;;2.70;92.30;;;;;;5029468;28;20193;-71
2021/03/02 05:37:14;;;;;;;20.17;9.50;;;2.60;92.50;;;;;;5043095;28;20471;-71
2021/03/02 05:39:40;;;;;;;23.30;10.10;;;2.60;92.50;;;;;;5018139;28;20186;-71
2021/03/02 05:42:09;;;;;;;21.90;10.13;;;2.60;92.50;;;;;;5033193;28;20208;-71
2021/03/02 05:44:35;;;;;;;19.58;9.88;;;2.60;92.60;;;;;;5037021;28;20181;-72
2021/03/02 05:47:02;;;;;;;19.33;9.93;;;2.70;92.60;;;;;;5024141;28;20232;-72
2021/03/02 05:49:28;;;;;;;17.25;9.15;;;2.60;92.70;;;;;;5042955;28;20815;-72
2021/03/02 05:51:54;;;;;;;22.58;11.20;;;2.60;92.70;;;;;;5044453;28;20209;-75
2021/03/02 05:54:20;;;;;;;24.33;10.77;;;2.60;92.90;;;;;;5043224;28;20203;-71
2021/03/02 05:56:46;;;;;;;18.37;10.10;;;2.60;92.90;;;;;;5044457;28;20474;-71
2021/03/02 05:59:12;;;;;;;24.37;10.97;;;2.60;93.10;;;;;;5031786;28;20791;-73
2021/03/02 06:01:38;;;;;;;21.63;10.77;;;2.50;93.10;;;;;;5049541;28;20212;-75
2021/03/02 06:04:04;;;;;;;19.30;10.30;;;2.60;93.10;;;;;;5038023;28;20252;-74
2021/03/02 06:06:30;;;;;;;19.20;10.30;;;2.60;92.90;;;;;;5051010;28;20462;-73
2021/03/02 06:08:56;;;;;;;22.53;10.97;;;2.70;92.70;;;;;;5039696;28;21056;-71
2021/03/02 06:11:23;;;;;;;21.93;10.50;;;2.70;92.30;;;;;;5025660;28;20448;-73
2021/03/02 06:13:49;;;;;;;23.60;10.67;;;2.70;92.00;;;;;;5010615;28;20520;-71
2021/03/02 06:16:15;;;;;;;21.85;10.50;;;2.70;91.90;;;;;;5035269;28;20455;-71
2021/03/02 06:18:48;;;;;;;26.90;10.17;;;2.70;91.90;;;;;;5048774;28;20259;-70
2021/03/02 06:21:14;;;;;;;17.30;10.43;;;2.70;91.60;;;;;;5027233;28;20537;-72
2021/03/02 06:23:53;;;;;;;29.98;11.60;;;2.70;91.50;;;;;;5041521;28;20431;-71
2021/03/02 06:26:24;;;;;;;22.80;11.63;;;2.70;91.40;;;;;;5039796;28;20590;-71
2021/03/02 06:29:01;;;;;;;20.20;10.68;;;2.70;91.30;;;;;;5044813;28;20197;-71
2021/03/02 06:31:34;;;;;;;22.98;11.40;;;2.70;91.30;;;;;;5041657;28;20204;-71
2021/03/02 06:34:18;;;;;;;25.50;11.73;;;2.70;91.20;;;;;;5029031;28;20185;-70
2021/03/02 06:36:59;;;;;;;21.15;10.30;;;2.70;91.30;;;;;;5046034;28;20207;-72
2021/03/02 06:39:40;;;;;;;24.90;11.50;;;2.80;91.30;;;;;;5028302;28;20261;-72
2021/03/02 06:42:17;;;;;;;27.25;12.68;;;2.80;91.10;;;;;;5033277;28;20528;-71
2021/03/02 06:44:48;;;;;;;26.77;11.43;;;2.90;90.90;;;;;;5033583;28;20208;-71
2021/03/02 06:47:29;;;;;;;27.45;12.00;;;2.90;90.80;;;;;;5036678;28;20998;-72
2021/03/02 06:49:55;;;;;;;28.10;12.20;;;2.90;90.90;;;;;;5042801;28;20655;-70
2021/03/02 06:52:21;;;;;;;26.80;11.63;;;2.90;90.90;;;;;;5042292;28;20209;-72
2021/03/02 06:54:49;;;;;;;28.00;12.37;;;3.00;90.80;;;;;;5036383;28;20181;-73
2021/03/02 06:57:25;;;;;;;23.67;10.75;;;2.90;90.70;;;;;;5043810;28;20200;-71
2021/03/02 06:59:56;;;;;;;26.20;11.80;;;3.00;90.80;;;;;;5040305;28;20180;-70
2021/03/02 07:02:35;;;;;;;30.48;12.57;;;3.00;90.60;;;;;;5053723;28;20834;-72
2021/03/02 07:05:19;;;;;;;25.08;12.13;;;3.10;90.30;;;;;;5019693;28;20184;-71
2021/03/02 07:07:54;;;;;;;22.38;11.40;;;3.10;90.30;;;;;;5048074;28;20655;-70
2021/03/02 07:10:22;;;;;;;22.00;12.25;;;3.20;90.30;;;;;;5043951;28;20195;-71
2021/03/02 07:12:48;;;;;;;26.58;12.50;;;3.20;90.30;;;;;;5046360;28;20205;-72
2021/03/02 07:15:19;;;;;;;21.40;11.80;;;3.30;90.40;;;;;;5032521;28;20208;-71
2021/03/02 07:17:52;;;;;;;24.10;11.55;;;3.30;90.30;;;;;;5033001;28;20474;-74
2021/03/02 07:20:23;;;;;;;25.83;11.93;;;3.40;90.00;;;;;;5033661;28;20187;-73
2021/03/02 07:22:53;;;;;;;28.63;11.80;;;3.40;90.00;;;;;;5032295;28;20455;-72
2021/03/02 07:25:21;;;;;;;28.02;13.55;;;3.40;90.00;;;;;;5045741;28;20421;-71
2021/03/02 07:27:52;;;;;;;23.90;12.63;;;3.40;89.70;;;;;;5040838;28;20193;-73
2021/03/02 07:30:19;;;;;;;33.90;14.57;;;3.50;90.10;;;;;;5039887;28;20428;-72
2021/03/02 07:32:45;;;;;;;44.40;14.68;;;3.60;89.60;;;;;;5053913;28;20461;-72
2021/03/02 07:35:19;;;;;;;36.47;14.10;;;3.60;89.60;;;;;;5050280;28;20189;-71
2021/03/02 07:37:45;;;;;;;29.60;12.90;;;3.70;89.30;;;;;;5042511;28;20473;-72
2021/03/02 07:40:13;;;;;;;32.00;13.57;;;3.80;88.70;;;;;;5033725;28;20424;-73
2021/03/02 07:42:40;;;;;;;29.50;13.87;;;3.90;88.40;;;;;;5043621;28;20430;-73
2021/03/02 07:45:09;;;;;;;37.87;13.40;;;3.80;88.40;;;;;;5039616;28;20500;-70
2021/03/02 07:47:53;;;;;;;25.10;14.17;;;3.80;88.40;;;;;;5047703;28;20431;-72
2021/03/02 07:50:30;;;;;;;24.47;12.90;;;3.90;88.30;;;;;;5039633;28;20530;-72
2021/03/02 07:53:14;;;;;;;32.47;13.40;;;3.90;88.10;;;;;;5039333;28;20974;-70
2021/03/02 07:55:40;;;;;;;35.60;15.17;;;4.00;88.00;;;;;;5041451;28;20416;-72
2021/03/02 07:58:20;;;;;;;24.73;13.40;;;4.00;87.80;;;;;;5046716;28;20521;-71
2021/03/02 08:00:48;;;;;;;35.87;14.40;;;4.00;87.80;;;;;;5046832;28;20180;-73
2021/03/02 08:03:20;;;;;;;30.07;14.83;;;4.10;87.30;;;;;;5052135;28;20415;-70
2021/03/02 08:05:47;;;;;;;31.70;14.10;;;4.10;87.30;;;;;;5037807;28;20437;-70
2021/03/02 08:08:25;;;;;;;31.90;14.30;;;4.10;87.10;;;;;;5052457;28;20458;-71
2021/03/02 08:11:24;;;;;;;30.40;15.00;;;4.20;87.10;;;;;;5037624;28;20517;-72
2021/03/02 08:13:50;;;;;;;28.30;13.80;;;4.20;87.00;;;;;;5050764;28;20972;-72
2021/03/02 08:16:54;;;;;;;31.80;14.70;;;4.30;86.80;;;;;;5051588;28;20490;-70
2021/03/02 08:19:41;;;;;;;33.97;14.87;;;4.40;86.60;;;;;;5052405;28;20422;-70
2021/03/02 08:22:19;;;;;;;32.33;14.17;;;4.40;86.20;;;;;;5017227;28;20448;-70
2021/03/02 08:24:52;;;;;;;30.77;13.10;;;4.50;85.90;;;;;;5040449;28;20423;-70
2021/03/02 08:27:36;;;;;;;34.10;14.20;;;4.60;85.90;;;;;;5031851;28;20432;-72
2021/03/02 08:30:13;;;;;;;26.80;14.37;;;4.70;85.50;;;;;;5034370;28;20427;-72
2021/03/02 08:32:42;;;;;;;29.80;15.33;;;4.80;85.00;;;;;;5046537;28;20462;-71
2021/03/02 08:35:14;;;;;;;32.70;14.80;;;4.80;85.30;;;;;;5050143;28;20424;-70
2021/03/02 08:37:50;;;;;;;35.63;15.60;;;4.80;85.30;;;;;;5032595;28;20607;-71
2021/03/02 08:40:22;;;;;;;29.93;14.50;;;4.90;85.20;;;;;;5025440;28;20438;-69
2021/03/02 08:43:01;;;;;;;29.90;16.43;;;5.00;84.70;;;;;;5040190;28;20530;-71
2021/03/02 08:45:29;;;;;;;33.67;16.77;;;5.20;84.30;;;;;;5044262;28;20431;-71
2021/03/02 08:48:33;;;;;;;30.73;15.50;;;5.30;83.80;;;;;;5037832;28;20427;-72
2021/03/02 08:51:05;;;;;;;35.10;17.00;;;5.30;83.80;;;;;;5033676;28;20471;-71
2021/03/02 08:53:41;;;;;;;37.00;17.43;;;5.40;83.00;;;;;;5036503;28;20904;-70
2021/03/02 08:56:20;;;;;;;28.43;14.80;;;5.50;83.10;;;;;;5043024;28;20419;-72
2021/03/02 08:58:51;;;;;;;26.73;14.77;;;5.60;82.40;;;;;;5050937;28;20415;-71
2021/03/02 09:01:22;;;;;;;28.93;14.73;;;5.70;81.90;;;;;;5046330;28;20933;-70
2021/03/02 09:03:50;;;;;;;37.47;15.57;;;5.90;81.20;;;;;;5046538;28;20429;-71
2021/03/02 09:06:20;;;;;;;26.30;15.63;;;6.00;80.50;;;;;;5042839;28;20498;-72
2021/03/02 09:08:58;;;;;;;25.87;14.30;;;6.30;79.60;;;;;;5043946;28;20923;-72
2021/03/02 09:11:44;;;;;;;30.47;15.63;;;6.40;79.20;;;;;;5044161;28;20493;-72
2021/03/02 09:14:37;;;;;;;32.40;14.90;;;6.50;78.70;;;;;;5006897;28;20433;-71
2021/03/02 09:17:04;;;;;;;34.60;14.53;;;6.60;78.40;;;;;;5041132;28;21045;-70
2021/03/02 09:19:35;;;;;;;24.83;14.30;;;6.70;78.30;;;;;;5036939;28;20421;-71
2021/03/02 09:22:06;;;;;;;30.17;14.93;;;6.90;77.10;;;;;;5035203;28;20487;-71
2021/03/02 09:24:36;;;;;;;26.70;14.20;;;7.00;76.70;;;;;;5035555;28;20971;-72
2021/03/02 09:27:04;;;;;;;30.60;14.87;;;7.20;76.10;;;;;;5036436;28;21124;-70
2021/03/02 09:29:52;;;;;;;25.10;14.03;;;7.20;76.10;;;;;;5050146;28;20496;-70
2021/03/02 09:32:30;;;;;;;32.27;14.40;;;7.30;75.90;;;;;;5035709;28;20492;-69
2021/03/02 09:35:00;;;;;;;27.57;14.27;;;7.60;75.10;;;;;;5036351;28;20502;-70
2021/03/02 09:37:27;;;;;;;25.77;14.27;;;7.70;74.20;;;;;;5042623;28;20499;-69
2021/03/02 09:40:02;;;;;;;24.80;13.50;;;7.80;74.20;;;;;;5015677;28;20417;-72
2021/03/02 09:42:30;;;;;;;33.70;14.73;;;7.90;73.70;;;;;;5029712;28;20562;-70
2021/03/02 09:44:57;;;;;;;26.10;15.00;;;8.10;73.30;;;;;;5048326;28;20443;-71
2021/03/02 09:47:35;;;;;;;30.13;14.73;;;8.30;72.30;;;;;;5029755;28;20434;-71
2021/03/02 09:50:15;;;;;;;30.63;13.93;;;8.30;71.60;;;;;;5038902;28;20470;-72
2021/03/02 09:52:51;;;;;;;31.40;14.57;;;8.40;71.80;;;;;;5039236;28;20834;-72
2021/03/02 09:55:31;;;;;;;28.20;14.50;;;8.50;71.10;;;;;;5016538;28;20416;-72
2021/03/02 09:58:15;;;;;;;32.23;14.77;;;8.60;70.80;;;;;;5041095;28;21130;-72
2021/03/02 10:00:50;;;;;;;31.37;15.07;;;8.90;70.40;;;;;;5041905;28;20820;-71
2021/03/02 10:03:17;;;;;;;30.30;15.13;;;9.00;69.80;;;;;;5015399;28;20423;-71
2021/03/02 10:05:52;;;;;;;26.70;13.23;;;9.20;69.50;;;;;;5042448;28;20423;-70
2021/03/02 10:08:32;;;;;;;24.93;13.57;;;9.30;68.60;;;;;;5037080;28;20426;-71
2021/03/02 10:11:05;;;;;;;29.03;14.50;;;9.40;68.00;;;;;;5038339;28;20418;-72
2021/03/02 10:13:35;;;;;;;26.23;13.07;;;9.50;67.60;;;;;;5041227;28;20440;-72
2021/03/02 10:16:10;;;;;;;23.97;13.57;;;9.60;67.20;;;;;;5050607;28;20521;-70
2021/03/02 10:18:43;;;;;;;31.43;14.17;;;9.80;66.70;;;;;;5051360;28;20953;-71
2021/03/02 10:21:09;;;;;;;22.60;13.03;;;9.90;65.80;;;;;;5039696;28;20665;-72
2021/03/02 10:23:41;;;;;;;25.60;13.20;;;10.00;65.40;;;;;;5051733;28;20918;-71
2021/03/02 10:26:07;;;;;;;27.70;13.87;;;10.10;65.00;;;;;;5052043;28;20425;-72
2021/03/02 10:28:34;;;;;;;26.93;13.63;;;10.30;64.40;;;;;;5051406;28;20442;-72
2021/03/02 10:31:00;;;;;;;27.40;13.80;;;10.30;63.90;;;;;;5033281;28;20515;-71
2021/03/02 10:33:26;;;;;;;25.80;13.07;;;10.30;64.10;;;;;;5032721;28;20424;-74
2021/03/02 10:35:53;;;;;;;24.90;12.97;;;10.40;63.90;;;;;;5032870;28;20764;-72
2021/03/02 10:38:19;;;;;;;26.80;13.27;;;10.50;63.90;;;;;;5033355;28;20683;-72
2021/03/02 10:40:45;;;;;;;29.33;12.93;;;10.50;63.50;;;;;;5024497;28;20424;-73
2021/03/02 10:43:11;;;;;;;28.53;13.43;;;10.60;63.40;;;;;;5035353;28;20436;-72
2021/03/02 10:45:37;;;;;;;24.27;12.47;;;10.80;62.80;;;;;;5033928;28;20498;-71
2021/03/02 10:48:03;;;;;;;26.90;13.47;;;11.10;62.30;;;;;;5041963;28;20220;-73
2021/03/02 10:50:30;;;;;;;27.93;14.50;;;11.50;60.90;;;;;;5054198;28;20207;-71
2021/03/02 10:52:57;;;;;;;30.87;15.40;;;12.00;59.10;;;;;;5053968;28;20461;-73
2021/03/02 10:55:23;;;;;;;27.27;13.33;;;12.50;57.80;;;;;;5053345;28;20480;-72
2021/03/02 10:57:50;;;;;;;28.10;12.77;;;13.20;55.70;;;;;;5052859;28;20493;-72
2021/03/02 11:00:17;;;;;;;21.07;12.50;;;14.00;53.20;;;;;;5044787;28;20423;-70
2021/03/02 11:02:43;;;;;;;24.43;12.80;;;14.50;50.30;;;;;;5046272;28;21032;-73
2021/03/02 11:05:10;;;;;;;22.60;12.53;;;14.80;49.80;;;;;;5039355;28;20438;-72
2021/03/02 11:07:36;;;;;;;24.60;12.33;;;15.40;48.70;;;;;;5039283;28;20434;-71
2021/03/02 11:10:03;;;;;;;29.83;13.80;;;15.90;47.30;;;;;;5044039;28;20426;-71
2021/03/02 11:12:29;;;;;;;23.17;13.40;;;16.00;45.80;;;;;;5045203;28;20826;-71
2021/03/02 11:14:55;;;;;;;23.30;12.17;;;16.40;46.50;;;;;;5033878;28;20419;-71
2021/03/02 11:17:21;;;;;;;19.20;11.30;;;17.00;45.30;;;;;;5032824;28;20704;-73
2021/03/02 11:19:48;;;;;;;27.10;13.90;;;17.50;43.50;;;;;;5034946;28;20201;-72
2021/03/02 11:22:14;;;;;;;27.80;13.77;;;17.80;42.20;;;;;;5047317;28;20449;-72
2021/03/02 11:24:40;;;;;;;27.17;14.53;;;18.00;42.20;;;;;;5042971;28;20808;-72
2021/03/02 11:27:06;;;;;;;31.80;15.77;;;17.70;41.60;;;;;;5051442;28;20198;-72
2021/03/02 11:29:35;;;;;;;26.30;14.70;;;17.00;43.50;;;;;;5052905;28;20191;-72
2021/03/02 11:32:02;;;;;;;25.07;13.00;;;16.40;44.90;;;;;;5052800;28;20207;-71
2021/03/02 11:34:27;;;;;;;24.90;14.50;;;16.00;46.30;;;;;;5051593;28;20536;-72
2021/03/02 11:36:53;;;;;;;29.90;15.87;;;16.10;46.50;;;;;;5037553;28;20541;-71
2021/03/02 11:39:19;;;;;;;23.37;13.90;;;16.10;46.20;;;;;;5031617;28;20668;-72
2021/03/02 11:41:44;;;;;;;24.60;14.50;;;16.00;46.20;;;;;;5039734;28;20254;-73
2021/03/02 11:44:11;;;;;;;27.30;14.17;;;15.60;47.10;;;;;;5031399;28;20193;-68
2021/03/02 11:46:37;;;;;;;28.20;14.37;;;15.60;47.40;;;;;;5028350;28;20582;-73
2021/03/02 11:49:02;;;;;;;22.63;12.83;;;15.70;47.30;;;;;;5051520;28;20486;-73
2021/03/02 11:51:28;;;;;;;26.63;13.53;;;15.70;47.00;;;;;;5051459;28;20244;-71
2021/03/02 11:53:54;;;;;;;34.43;15.13;;;15.70;46.50;;;;;;5052076;28;20200;-71
2021/03/02 11:56:20;;;;;;;28.53;14.17;;;15.60;46.90;;;;;;5034578;28;20192;-72
2021/03/02 11:58:45;;;;;;;30.17;13.03;;;15.50;47.00;;;;;;5033920;28;20178;-73
2021/03/02 12:01:11;;;;;;;27.17;13.20;;;15.50;46.10;;;;;;5046903;28;20241;-72
2021/03/02 12:03:37;;;;;;;25.57;13.40;;;15.60;46.50;;;;;;5041949;28;20663;-72
2021/03/02 12:06:03;;;;;;;30.00;13.73;;;15.60;45.90;;;;;;5037601;28;20203;-72
2021/03/02 12:08:29;;;;;;;26.07;14.97;;;15.80;45.90;;;;;;5032857;28;20198;-73
2021/03/02 12:10:54;;;;;;;28.20;13.47;;;16.00;45.80;;;;;;5043279;28;20418;-70
2021/03/02 12:13:22;;;;;;;29.03;14.10;;;16.10;45.40;;;;;;5039586;28;20184;-71
2021/03/02 12:15:48;;;;;;;26.03;14.10;;;15.90;45.70;;;;;;5050400;28;20271;-72
2021/03/02 12:18:14;;;;;;;28.73;14.17;;;16.00;45.10;;;;;;5050699;28;20845;-71
2021/03/02 12:20:40;;;;;;;23.93;12.23;;;15.70;45.40;;;;;;5050821;28;20419;-72
2021/03/02 12:23:06;;;;;;;22.33;13.27;;;15.70;45.70;;;;;;5050661;28;20234;-73
2021/03/02 12:25:32;;;;;;;21.03;12.67;;;15.90;45.30;;;;;;5050160;28;20185;-71
2021/03/02 12:27:57;;;;;;;35.70;14.03;;;16.00;44.30;;;;;;5050559;28;20875;-72
2021/03/02 12:30:24;;;;;;;25.87;12.77;;;16.00;43.80;;;;;;5037232;28;20224;-70
2021/03/02 12:32:50;;;;;;;32.00;13.17;;;16.10;43.80;;;;;;5040754;28;20273;-72
2021/03/02 12:35:16;;;;;;;27.30;13.63;;;16.30;42.60;;;;;;5030462;28;20427;-73
2021/03/02 12:37:42;;;;;;;25.47;13.40;;;16.30;42.20;;;;;;5032126;28;20463;-71
2021/03/02 12:40:09;;;;;;;27.60;13.00;;;16.20;41.90;;;;;;5019526;28;20649;-72
2021/03/02 12:42:34;;;;;;;26.93;11.93;;;16.10;41.60;;;;;;5042875;28;20439;-73
2021/03/02 12:45:00;;;;;;;26.13;13.67;;;16.20;41.20;;;;;;5042529;28;20517;-72
2021/03/02 12:47:26;;;;;;;28.77;12.53;;;16.20;42.00;;;;;;5025163;28;20525;-73
2021/03/02 12:49:52;;;;;;;29.33;13.20;;;16.10;41.90;;;;;;5042285;28;20446;-71